createdAt,value
2023-10-25T00:00:34.925Z,99250.27
2023-10-25T00:03:01.633Z,99250.60
2023-10-25T00:05:34.198Z,99249.39
2023-10-25T00:08:00.749Z,99248.67
2023-10-25T00:10:28.087Z,99246.77
2023-10-25T00:12:57.008Z,99244.33
2023-10-25T00:15:23.718Z,99239.02
2023-10-25T00:17:50.395Z,99245.52
2023-10-25T00:20:17.720Z,99244.46
2023-10-25T00:22:46.201Z,99248.05
2023-10-25T00:25:12.701Z,99252.48
2023-10-25T00:27:39.282Z,99252.80
2023-10-25T00:30:07.477Z,99249.19
2023-10-25T00:32:34.017Z,99245.74
2023-10-25T00:35:01.287Z,99247.11
2023-10-25T00:37:27.764Z,99246.79
2023-10-25T00:39:58.159Z,99244.21
2023-10-25T00:42:25.387Z,99243.73
2023-10-25T00:44:51.995Z,99249.41
2023-10-25T00:47:18.622Z,99246.33
2023-10-25T00:49:45.203Z,99248.06
2023-10-25T00:52:11.996Z,99245.02
2023-10-25T00:54:38.869Z,99236.97
2023-10-25T00:57:05.617Z,99240.44
2023-10-25T00:59:32.722Z,99238.55
2023-10-25T01:02:01.037Z,99236.84
2023-10-25T01:04:29.415Z,99239.92
2023-10-25T01:06:56.686Z,99237.52
2023-10-25T01:09:23.812Z,99237.18
2023-10-25T01:11:50.822Z,99231.71
2023-10-25T01:14:17.369Z,99231.74
2023-10-25T01:16:43.954Z,99227.96
2023-10-25T01:19:10.978Z,99226.77
2023-10-25T01:21:38.152Z,99217.85
2023-10-25T01:24:05.474Z,99214.73
2023-10-25T01:26:32.224Z,99209.21
2023-10-25T01:28:58.811Z,99206.42
2023-10-25T01:31:25.383Z,99211.33
2023-10-25T01:33:52.779Z,99215.42
2023-10-25T01:36:20.136Z,99220.41
2023-10-25T01:38:46.994Z,99219.89
2023-10-25T01:41:17.306Z,99221.45
2023-10-25T01:43:44.681Z,99221.13
2023-10-25T01:46:14.440Z,99218.08
2023-10-25T01:48:41.267Z,99218.44
2023-10-25T01:51:07.993Z,99222.41
2023-10-25T01:53:35.079Z,99226.20
2023-10-25T01:56:04.199Z,99227.06
2023-10-25T01:58:31.986Z,99229.64
2023-10-25T02:01:01.122Z,99231.17
2023-10-25T02:03:28.203Z,99223.77
2023-10-25T02:05:54.909Z,99223.10
2023-10-25T02:08:21.621Z,99213.19
2023-10-25T02:10:50.562Z,99213.70
2023-10-25T02:13:17.472Z,99210.95
2023-10-25T02:15:44.369Z,99212.69
2023-10-25T02:18:11.209Z,99210.65
2023-10-25T02:20:37.955Z,99216.31
2023-10-25T02:23:04.801Z,99218.88
2023-10-25T02:25:31.494Z,99208.27
2023-10-25T02:27:58.277Z,99201.41
2023-10-25T02:30:25.321Z,99202.27
2023-10-25T02:32:51.898Z,99197.96
2023-10-25T02:35:19.445Z,99196.55
2023-10-25T02:37:46.078Z,99192.92
2023-10-25T02:40:12.885Z,99190.51
2023-10-25T02:42:43.496Z,99193.06
2023-10-25T02:45:10.921Z,99193.23
2023-10-25T02:47:39.984Z,99184.66
2023-10-25T02:50:07.908Z,99183.77
2023-10-25T02:52:36.638Z,99183.08
2023-10-25T02:55:03.549Z,99178.27
2023-10-25T02:57:30.108Z,99176.33
2023-10-25T02:59:56.958Z,99180.95
2023-10-25T03:02:23.582Z,99177.68
2023-10-25T03:04:50.151Z,99172.84
2023-10-25T03:07:16.760Z,99168.52
2023-10-25T03:09:43.683Z,99166.44
2023-10-25T03:12:10.717Z,99160.93
2023-10-25T03:14:40.050Z,99157.31
2023-10-25T03:17:07.030Z,99157.47
2023-10-25T03:19:33.558Z,99160.20
2023-10-25T03:22:00.202Z,99155.38
2023-10-25T03:24:26.826Z,99155.88
2023-10-25T03:26:53.467Z,99155.52
2023-10-25T03:29:20.843Z,99154.13
2023-10-25T03:31:47.657Z,99152.40
2023-10-25T03:34:16.102Z,99145.87
2023-10-25T03:36:42.759Z,99148.94
2023-10-25T03:39:09.251Z,99151.51
2023-10-25T03:41:36.194Z,99156.14
2023-10-25T03:44:03.054Z,99149.64
2023-10-25T03:46:29.629Z,99142.81
2023-10-25T03:48:56.565Z,99136.84
2023-10-25T03:51:25.527Z,99139.42
2023-10-25T03:53:52.432Z,99143.58
2023-10-25T03:56:19.446Z,99143.63
2023-10-25T03:58:45.970Z,99145.54
2023-10-25T04:01:12.778Z,99143.70
2023-10-25T04:03:39.784Z,99141.65
2023-10-25T04:06:08.261Z,99139.30
2023-10-25T04:08:35.048Z,99130.22
2023-10-25T04:11:02.793Z,99122.33
2023-10-25T04:13:29.210Z,99120.44
2023-10-25T04:16:01.214Z,99122.02
2023-10-25T04:18:29.852Z,99120.52
2023-10-25T04:20:57.720Z,99114.21
2023-10-25T04:23:29.798Z,99110.11
2023-10-25T04:26:13.210Z,99102.05
2023-10-25T04:28:42.294Z,99099.27
2023-10-25T04:31:11.178Z,99099.42
2023-10-25T04:33:39.195Z,99100.02
2023-10-25T04:36:07.311Z,99096.39
2023-10-25T04:38:34.156Z,99093.12
2023-10-25T04:41:00.791Z,99091.38
2023-10-25T04:43:30.826Z,99084.20
2023-10-25T04:46:00.553Z,99079.07
2023-10-25T04:48:28.171Z,99074.96
2023-10-25T04:50:54.737Z,99071.89
2023-10-25T04:53:21.296Z,99069.99
2023-10-25T04:55:48.111Z,99067.07
2023-10-25T04:58:15.332Z,99058.81
2023-10-25T05:00:44.320Z,99058.44
2023-10-25T05:03:12.683Z,99056.05
2023-10-25T05:05:40.266Z,99055.86
2023-10-25T05:08:09.058Z,99057.71
2023-10-25T05:10:36.398Z,99055.29
2023-10-25T05:13:03.665Z,99057.17
2023-10-25T05:15:30.923Z,99057.67
2023-10-25T05:17:58.175Z,99056.32
2023-10-25T05:20:25.395Z,99057.20
2023-10-25T05:22:53.374Z,99053.80
2023-10-25T05:25:21.624Z,99052.63
2023-10-25T05:27:49.170Z,99048.87
2023-10-25T05:30:18.962Z,99047.33
2023-10-25T05:32:49.857Z,99047.00
2023-10-25T05:35:17.232Z,99043.23
2023-10-25T05:37:44.577Z,99042.20
2023-10-25T05:40:12.020Z,99046.81
2023-10-25T05:42:47.715Z,99038.78
2023-10-25T05:45:15.677Z,99036.56
2023-10-25T05:47:44.003Z,99038.77
2023-10-25T05:50:11.782Z,99042.89
2023-10-25T05:52:45.744Z,99040.11
2023-10-25T05:55:16.981Z,99040.08
2023-10-25T05:57:44.901Z,99043.48
2023-10-25T06:00:12.705Z,99044.98
2023-10-25T06:02:40.445Z,99046.53
2023-10-25T06:07:41.697Z,99044.45
2023-10-25T06:10:11.995Z,99042.52
2023-10-25T06:12:42.086Z,99039.40
2023-10-25T06:15:10.901Z,99038.53
2023-10-25T06:17:37.910Z,99039.23
2023-10-25T06:20:05.778Z,99035.83
2023-10-25T06:22:32.593Z,99037.90
2023-10-25T06:24:59.413Z,99041.33
2023-10-25T06:27:26.206Z,99039.27
2023-10-25T06:29:55.244Z,99032.90
2023-10-25T06:32:21.801Z,99034.95
2023-10-25T06:34:48.922Z,99032.02
2023-10-25T06:37:16.220Z,99025.82
2023-10-25T06:39:45.612Z,99027.70
2023-10-25T06:42:13.011Z,99019.81
2023-10-25T06:44:40.764Z,99012.27
2023-10-25T06:47:10.851Z,99011.70
2023-10-25T06:49:37.975Z,99009.62
2023-10-25T06:52:08.035Z,99004.61
2023-10-25T06:54:37.431Z,98997.36
2023-10-25T06:57:04.787Z,98990.48
2023-10-25T06:59:31.684Z,98985.27
2023-10-25T07:02:15.906Z,98986.05
2023-10-25T07:04:43.988Z,98991.64
2023-10-25T07:07:14.137Z,98994.17
2023-10-25T07:09:42.383Z,98998.59
2023-10-25T07:12:09.115Z,98997.23
2023-10-25T07:14:35.700Z,98988.66
2023-10-25T07:17:02.389Z,98987.64
2023-10-25T07:19:29.153Z,98977.45
2023-10-25T07:21:56.138Z,98967.24
2023-10-25T07:24:22.841Z,98961.69
2023-10-25T07:26:49.345Z,98955.33
2023-10-25T07:29:17.964Z,98953.27
2023-10-25T07:31:44.541Z,98951.66
2023-10-25T07:34:11.457Z,98947.04
2023-10-25T07:36:40.395Z,98940.48
2023-10-25T07:39:07.332Z,98938.88
2023-10-25T07:41:33.971Z,98937.24
2023-10-25T07:44:02.226Z,98933.60
2023-10-25T07:46:28.836Z,98929.73
2023-10-25T07:48:55.627Z,98924.17
2023-10-25T07:51:22.160Z,98929.08
2023-10-25T07:53:48.853Z,98918.86
2023-10-25T07:58:46.184Z,98912.92
2023-10-25T08:01:13.858Z,98913.61
2023-10-25T08:03:40.949Z,98913.63
2023-10-25T08:06:08.733Z,98907.65
2023-10-25T08:08:37.576Z,98895.77
2023-10-25T08:11:08.275Z,98893.30
2023-10-25T08:13:38.644Z,98895.83
2023-10-25T08:16:05.894Z,98900.67
2023-10-25T08:18:33.276Z,98896.77
2023-10-25T08:21:00.763Z,98896.25
2023-10-25T08:23:28.402Z,98888.98
2023-10-25T08:25:55.305Z,98886.13
2023-10-25T08:28:21.902Z,98888.04
2023-10-25T08:30:48.750Z,98885.27
2023-10-25T08:33:17.989Z,98881.29
2023-10-25T08:35:44.812Z,98880.22
2023-10-25T08:38:11.815Z,98876.75
2023-10-25T08:40:42.332Z,98874.95
2023-10-25T08:43:10.350Z,98869.56
2023-10-25T08:45:37.282Z,98866.13
2023-10-25T08:48:06.615Z,98859.66
2023-10-25T08:50:34.874Z,98857.70
2023-10-25T08:53:06.744Z,98848.13
2023-10-25T08:55:33.331Z,98838.69
2023-10-25T08:57:59.988Z,98834.84
2023-10-25T09:00:43.389Z,98837.66
2023-10-25T09:03:33.621Z,98836.01
2023-10-25T09:06:02.364Z,98824.29
2023-10-25T09:08:32.371Z,98807.27
2023-10-25T09:11:03.933Z,98794.01
2023-10-25T09:13:34.402Z,98796.38
2023-10-25T09:16:08.171Z,98780.62
2023-10-25T09:18:36.431Z,98767.52
2023-10-25T09:21:11.748Z,98760.75
2023-10-25T09:23:39.989Z,98759.83
2023-10-25T09:26:16.243Z,98770.11
2023-10-25T09:28:46.605Z,98776.55
2023-10-25T09:31:29.362Z,98772.69
2023-10-25T09:34:00.621Z,98759.73
2023-10-25T09:36:28.440Z,98753.86
2023-10-25T09:38:57.812Z,98757.85
2023-10-25T09:41:27.654Z,98761.21
2023-10-25T09:43:59.679Z,98757.28
2023-10-25T09:46:31.949Z,98758.17
2023-10-25T09:49:07.942Z,98750.70
2023-10-25T09:51:35.263Z,98745.26
2023-10-25T09:54:10.609Z,98741.14
2023-10-25T09:56:38.382Z,98732.35
2023-10-25T09:59:08.776Z,98729.88
2023-10-25T10:01:36.366Z,98734.71
2023-10-25T10:04:11.674Z,98733.62
2023-10-25T10:06:43.201Z,98726.71
2023-10-25T10:09:28.948Z,98723.36
2023-10-25T10:12:04.632Z,98723.84
2023-10-25T10:14:36.934Z,98718.94
2023-10-25T10:17:10.360Z,98711.77
2023-10-25T10:19:41.933Z,98707.52
2023-10-25T10:22:10.261Z,98704.80
2023-10-25T10:24:46.954Z,98702.84
2023-10-25T10:27:18.969Z,98697.05
2023-10-25T10:29:47.801Z,98690.27
2023-10-25T10:32:15.750Z,98685.23
2023-10-25T10:34:59.034Z,98679.45
2023-10-25T10:37:27.639Z,98679.14
2023-10-25T10:39:56.931Z,98670.17
2023-10-25T10:42:36.139Z,98662.79
2023-10-25T10:45:07.724Z,98653.04
2023-10-25T10:47:40.289Z,98651.89
2023-10-25T10:50:14.958Z,98649.16
2023-10-25T10:52:44.194Z,98643.52
2023-10-25T10:55:18.968Z,98637.66
2023-10-25T10:58:06.316Z,98633.38
2023-10-25T11:00:33.299Z,98628.70
2023-10-25T11:03:09.910Z,98619.88
2023-10-25T11:05:38.271Z,98608.96
2023-10-25T11:08:12.229Z,98599.09
2023-10-25T11:10:41.253Z,98595.99
2023-10-25T11:13:12.006Z,98579.38
2023-10-25T11:15:42.040Z,98571.38
2023-10-25T11:18:10.480Z,98566.30
2023-10-25T11:20:41.926Z,98559.48
2023-10-25T11:23:09.339Z,98553.74
2023-10-25T11:25:37.898Z,98552.11
2023-10-25T11:28:05.865Z,98541.89
2023-10-25T11:30:35.886Z,98536.19
2023-10-25T11:33:03.178Z,98532.13
2023-10-25T11:35:30.060Z,98527.52
2023-10-25T11:37:58.050Z,98522.60
2023-10-25T11:40:42.329Z,98507.99
2023-10-25T11:43:09.853Z,98498.95
2023-10-25T11:45:38.668Z,98490.38
2023-10-25T11:48:07.334Z,98482.27
2023-10-25T11:50:34.835Z,98481.04
2023-10-25T11:53:01.609Z,98475.58
2023-10-25T11:55:37.048Z,98476.68
2023-10-25T11:58:05.098Z,98478.34
2023-10-25T12:00:32.129Z,98474.14
2023-10-25T12:02:58.714Z,98456.65
2023-10-25T12:05:26.332Z,98451.02
2023-10-25T12:07:54.622Z,98447.53
2023-10-25T12:10:23.198Z,98442.50
2023-10-25T12:12:49.732Z,98444.66
2023-10-25T12:15:16.410Z,98446.66
2023-10-25T12:17:47.246Z,98438.80
2023-10-25T12:20:26.885Z,98421.24
2023-10-25T12:22:55.756Z,98411.95
2023-10-25T12:25:22.879Z,98410.91
2023-10-25T12:27:49.715Z,98408.55
2023-10-25T12:30:16.353Z,98404.27
2023-10-25T12:32:43.034Z,98397.95
2023-10-25T12:35:09.761Z,98386.77
2023-10-25T12:37:36.463Z,98376.91
2023-10-25T12:40:05.629Z,98366.80
2023-10-25T12:42:32.101Z,98358.45
2023-10-25T12:45:00.698Z,98355.73
2023-10-25T12:47:27.339Z,98353.04
2023-10-25T12:49:56.085Z,98344.65
2023-10-25T12:52:22.809Z,98340.73
2023-10-25T12:54:49.679Z,98334.44
2023-10-25T12:57:16.125Z,98334.59
2023-10-25T12:59:42.714Z,98329.51
2023-10-25T13:02:09.864Z,98324.86
2023-10-25T13:04:39.134Z,98317.13
2023-10-25T13:07:07.019Z,98311.09
2023-10-25T13:09:36.391Z,98308.59
2023-10-25T13:12:06.598Z,98301.75
2023-10-25T13:14:35.702Z,98298.88
2023-10-25T13:17:16.545Z,98297.04
2023-10-25T13:19:46.724Z,98291.81
2023-10-25T13:22:13.327Z,98291.14
2023-10-25T13:24:39.838Z,98288.91
2023-10-25T13:27:06.478Z,98286.29
2023-10-25T13:29:35.803Z,98281.61
2023-10-25T13:32:02.339Z,98275.90
2023-10-25T13:34:31.553Z,98277.13
2023-10-25T13:37:00.329Z,98268.71
2023-10-25T13:39:27.010Z,98263.40
2023-10-25T13:41:53.564Z,98258.33
2023-10-25T13:44:20.577Z,98258.09
2023-10-25T13:46:47.259Z,98259.36
2023-10-25T13:49:16.592Z,98256.84
2023-10-25T13:51:44.016Z,98257.23
2023-10-25T13:54:10.910Z,98247.77
2023-10-25T13:56:38.358Z,98239.37
2023-10-25T13:59:04.980Z,98242.23
2023-10-25T14:01:31.970Z,98239.61
2023-10-25T14:03:58.691Z,98243.65
2023-10-25T14:06:28.465Z,98238.32
2023-10-25T14:08:55.385Z,98237.13
2023-10-25T14:11:22.968Z,98232.65
2023-10-25T14:13:51.422Z,98228.85
2023-10-25T14:16:18.654Z,98222.69
2023-10-25T14:18:47.233Z,98211.95
2023-10-25T14:21:17.446Z,98208.23
2023-10-25T14:23:47.494Z,98205.61
2023-10-25T14:26:15.673Z,98206.16
2023-10-25T14:28:44.679Z,98202.33
2023-10-25T14:31:17.389Z,98188.94
2023-10-25T14:33:44.559Z,98185.84
2023-10-25T14:36:15.516Z,98181.80
2023-10-25T14:38:42.350Z,98180.11
2023-10-25T14:41:09.888Z,98181.89
2023-10-25T14:43:38.593Z,98184.21
2023-10-25T14:46:14.204Z,98181.88
2023-10-25T14:48:41.945Z,98180.25
2023-10-25T14:51:21.568Z,98187.34
2023-10-25T14:53:50.199Z,98186.50
2023-10-25T14:56:16.829Z,98183.91
2023-10-25T14:58:43.424Z,98180.77
2023-10-25T15:01:25.141Z,98174.98
2023-10-25T15:03:53.973Z,98165.69
2023-10-25T15:06:26.673Z,98158.60
2023-10-25T15:08:54.421Z,98154.96
2023-10-25T15:11:21.042Z,98164.63
2023-10-25T15:13:47.561Z,98159.13
2023-10-25T15:16:14.206Z,98153.41
2023-10-25T15:18:44.782Z,98146.67
2023-10-25T15:21:16.406Z,98147.69
2023-10-25T15:23:43.116Z,98147.31
2023-10-25T15:26:11.048Z,98145.91
2023-10-25T15:28:38.307Z,98148.27
2023-10-25T15:31:13.497Z,98144.45
2023-10-25T15:33:41.020Z,98145.41
2023-10-25T15:36:08.260Z,98137.15
2023-10-25T15:38:38.583Z,98131.48
2023-10-25T15:41:28.265Z,98133.90
2023-10-25T15:43:55.291Z,98130.80
2023-10-25T15:46:24.189Z,98129.44
2023-10-25T15:48:52.417Z,98131.71
2023-10-25T15:51:20.049Z,98127.97
2023-10-25T15:53:47.029Z,98130.75
2023-10-25T15:56:14.821Z,98123.25
2023-10-25T15:58:41.802Z,98124.16
2023-10-25T16:01:10.120Z,98121.98
2023-10-25T16:03:38.793Z,98121.38
2023-10-25T16:06:09.051Z,98113.85
2023-10-25T16:08:38.958Z,98113.95
2023-10-25T16:11:07.315Z,98106.23
2023-10-25T16:13:34.587Z,98102.86
2023-10-25T16:16:01.712Z,98099.10
2023-10-25T16:18:28.321Z,98097.13
2023-10-25T16:20:55.113Z,98089.56
2023-10-25T16:23:21.644Z,98087.53
2023-10-25T16:25:48.175Z,98088.78
2023-10-25T16:28:14.685Z,98089.48
2023-10-25T16:30:41.832Z,98088.47
2023-10-25T16:33:08.528Z,98081.05
2023-10-25T16:35:39.569Z,98079.67
2023-10-25T16:38:10.926Z,98078.29
2023-10-25T16:40:39.187Z,98081.20
2023-10-25T16:43:08.779Z,98089.27
2023-10-25T16:45:35.520Z,98089.77
2023-10-25T16:48:05.122Z,98083.89
2023-10-25T16:50:35.814Z,98074.58
2023-10-25T16:53:03.128Z,98085.59
2023-10-25T16:55:30.120Z,98086.10
2023-10-25T16:57:56.620Z,98088.13
2023-10-25T17:00:23.264Z,98086.39
2023-10-25T17:02:50.255Z,98085.69
2023-10-25T17:05:17.606Z,98085.79
2023-10-25T17:07:44.798Z,98088.02
2023-10-25T17:10:11.723Z,98093.00
2023-10-25T17:12:38.292Z,98095.21
2023-10-25T17:15:06.027Z,98096.39
2023-10-25T17:17:32.816Z,98097.57
2023-10-25T17:19:59.443Z,98098.90
2023-10-25T17:22:26.684Z,98093.73
2023-10-25T17:24:53.253Z,98094.58
2023-10-25T17:27:20.236Z,98094.20
2023-10-25T17:29:47.119Z,98093.67
2023-10-25T17:32:14.605Z,98095.70
2023-10-25T17:34:41.957Z,98088.99
2023-10-25T17:37:08.825Z,98085.77
2023-10-25T17:39:35.354Z,98084.23
2023-10-25T17:42:02.958Z,98084.92
2023-10-25T17:44:29.786Z,98082.70
2023-10-25T17:46:56.959Z,98083.05
2023-10-25T17:49:24.031Z,98080.10
2023-10-25T17:51:51.284Z,98075.13
2023-10-25T17:54:18.791Z,98075.12
2023-10-25T17:56:45.577Z,98073.23
2023-10-25T17:59:12.306Z,98070.84
2023-10-25T18:01:38.889Z,98071.92
2023-10-25T18:04:06.175Z,98067.64
2023-10-25T18:06:43.192Z,98071.65
2023-10-25T18:09:16.700Z,98072.25
2023-10-25T18:11:46.814Z,98065.27
2023-10-25T18:14:15.649Z,98065.46
2023-10-25T18:16:42.349Z,98065.01
2023-10-25T18:19:09.040Z,98066.61
2023-10-25T18:21:35.657Z,98066.13
2023-10-25T18:24:02.814Z,98069.42
2023-10-25T18:26:31.870Z,98067.45
2023-10-25T18:29:00.813Z,98066.27
2023-10-25T18:32:21.352Z,98072.33
2023-10-25T18:34:14.872Z,98072.74
2023-10-25T18:36:41.580Z,98072.80
2023-10-25T18:39:08.172Z,98073.55
2023-10-25T18:41:35.308Z,98072.20
2023-10-25T18:44:02.122Z,98069.16
2023-10-25T18:46:29.248Z,98067.29
2023-10-25T18:48:55.830Z,98068.53
2023-10-25T18:51:22.476Z,98068.73
2023-10-25T18:53:50.269Z,98067.55
2023-10-25T18:56:17.003Z,98067.77
2023-10-25T18:58:43.542Z,98067.81
2023-10-25T19:01:15.987Z,98068.49
2023-10-25T19:03:51.229Z,98068.15
2023-10-25T19:06:33.523Z,98064.19
2023-10-25T19:09:04.034Z,98068.13
2023-10-25T19:11:31.713Z,98068.48
2023-10-25T19:13:58.803Z,98065.70
2023-10-25T19:16:27.172Z,98067.55
2023-10-25T19:18:56.104Z,98065.61
2023-10-25T19:21:22.774Z,98064.71
2023-10-25T19:23:54.133Z,98067.40
2023-10-25T19:26:23.065Z,98066.31
2023-10-25T19:28:51.767Z,98069.73
2023-10-25T19:31:18.452Z,98074.70
2023-10-25T19:33:45.403Z,98076.23
2023-10-25T19:36:16.335Z,98078.80
2023-10-25T19:38:43.045Z,98076.58
2023-10-25T19:41:09.849Z,98081.73
2023-10-25T19:43:39.220Z,98085.55
2023-10-25T19:46:06.241Z,98090.92
2023-10-25T19:48:33.203Z,98090.46
2023-10-25T19:50:59.832Z,98090.27
2023-10-25T19:53:26.478Z,98092.33
2023-10-25T19:55:53.752Z,98092.88
2023-10-25T19:58:20.940Z,98102.98
2023-10-25T20:00:47.428Z,98098.02
2023-10-25T20:03:14.257Z,98103.88
2023-10-25T20:05:41.392Z,98106.95
2023-10-25T20:08:08.410Z,98108.65
2023-10-25T20:10:34.925Z,98113.13
2023-10-25T20:13:01.409Z,98117.45
2023-10-25T20:15:32.109Z,98119.22
2023-10-25T20:17:59.152Z,98122.34
2023-10-25T20:20:25.816Z,98128.55
2023-10-25T20:22:55.377Z,98130.00
2023-10-25T20:25:21.942Z,98137.45
2023-10-25T20:27:48.510Z,98136.27
2023-10-25T20:30:15.434Z,98135.44
2023-10-25T20:32:43.412Z,98136.30
2023-10-25T20:35:10.056Z,98136.14
2023-10-25T20:37:37.420Z,98140.08
2023-10-25T20:40:04.960Z,98141.62
2023-10-25T20:42:31.554Z,98140.07
2023-10-25T20:44:58.196Z,98139.17
2023-10-25T20:47:25.153Z,98149.98
2023-10-25T20:49:52.298Z,98151.69
2023-10-25T20:52:19.232Z,98153.09
2023-10-25T20:54:45.942Z,98154.29
2023-10-25T20:57:13.026Z,98157.00
2023-10-25T20:59:39.688Z,98164.22
2023-10-25T21:02:06.536Z,98166.17
2023-10-25T21:04:33.631Z,98167.20
2023-10-25T21:07:02.497Z,98168.60
2023-10-25T21:09:29.293Z,98169.64
2023-10-25T21:11:56.203Z,98169.80
2023-10-25T21:14:23.082Z,98172.77
2023-10-25T21:16:49.643Z,98176.77
2023-10-25T21:19:16.188Z,98180.95
2023-10-25T21:21:43.696Z,98190.27
2023-10-25T21:24:10.325Z,98191.84
2023-10-25T21:26:36.873Z,98186.52
2023-10-25T21:29:03.627Z,98190.01
2023-10-25T21:31:32.047Z,98190.22
2023-10-25T21:33:58.618Z,98187.33
2023-10-25T21:36:26.870Z,98192.22
2023-10-25T21:38:55.731Z,98197.62
2023-10-25T21:41:22.301Z,98194.94
2023-10-25T21:43:49.090Z,98205.48
2023-10-25T21:46:15.822Z,98210.19
2023-10-25T21:48:42.672Z,98205.96
2023-10-25T21:51:12.299Z,98209.62
2023-10-25T21:53:39.591Z,98213.14
2023-10-25T21:56:24.261Z,98213.22
2023-10-25T21:59:51.835Z,98220.54
2023-10-25T22:01:47.067Z,98218.09
2023-10-25T22:04:16.228Z,98219.25
2023-10-25T22:06:49.385Z,98226.23
2023-10-25T22:09:19.278Z,98226.70
2023-10-25T22:11:46.984Z,98228.29
2023-10-25T22:14:14.558Z,98226.02
2023-10-25T22:16:42.276Z,98230.64
2023-10-25T22:19:12.258Z,98242.92
2023-10-25T22:21:39.122Z,98243.67
2023-10-25T22:24:06.930Z,98247.33
2023-10-25T22:26:36.772Z,98251.49
2023-10-25T22:29:16.130Z,98259.27
2023-10-25T22:31:45.057Z,98262.59
2023-10-25T22:34:13.262Z,98269.38
2023-10-25T22:36:43.532Z,98274.23
2023-10-25T22:39:10.437Z,98269.32
2023-10-25T22:41:37.357Z,98272.63
2023-10-25T22:44:06.410Z,98280.05
2023-10-25T22:46:32.920Z,98280.45
2023-10-25T22:48:59.468Z,98283.59
2023-10-25T22:51:26.188Z,98290.16
2023-10-25T22:53:52.838Z,98286.91
2023-10-25T22:56:19.585Z,98296.57
2023-10-25T22:58:46.119Z,98299.00
2023-10-25T23:01:12.618Z,98303.66
2023-10-25T23:03:39.147Z,98311.92
2023-10-25T23:06:05.959Z,98315.54
2023-10-25T23:08:32.716Z,98321.76
2023-10-25T23:10:59.646Z,98316.07
2023-10-25T23:13:26.507Z,98318.67
2023-10-25T23:15:53.986Z,98316.29
2023-10-25T23:18:20.624Z,98317.30
2023-10-25T23:20:53.344Z,98320.42
2023-10-25T23:23:19.989Z,98321.34
2023-10-25T23:25:46.687Z,98315.88
2023-10-25T23:28:13.404Z,98326.10
2023-10-25T23:30:40.989Z,98327.70
2023-10-25T23:33:07.927Z,98324.22
2023-10-25T23:35:34.738Z,98328.59
2023-10-25T23:38:01.552Z,98325.92
2023-10-25T23:40:28.083Z,98323.41
2023-10-25T23:42:54.691Z,98323.09
2023-10-25T23:45:21.284Z,98317.63
2023-10-25T23:47:49.937Z,98324.85
2023-10-25T23:50:16.954Z,98336.73
2023-10-25T23:52:46.231Z,98340.73
2023-10-25T23:55:14.587Z,98345.02
2023-10-25T23:57:42.106Z,98350.50
